sensor_id;sensor_type;location;lat;lon;timestamp;pressure;altitude;pressure_sealevel;temperature;humidity
11487;BME280;10510;47.942;9.442;2023-04-27T00:01:18;94607.56;;;5.88;100.00
11487;BME280;10510;47.942;9.442;2023-04-27T00:03:18;94614.00;;;5.84;100.00
11487;BME280;10510;47.942;9.442;2023-04-27T00:05:18;94610.75;;;5.82;100.00
11487;BME280;10510;47.942;9.442;2023-04-27T00:07:19;94609.31;;;5.80;100.00
11487;BME280;10510;47.942;9.442;2023-04-27T00:09:19;94599.25;;;5.77;100.00
11487;BME280;10510;47.942;9.442;2023-04-27T00:11:19;94612.84;;;5.79;100.00
11487;BME280;10510;47.942;9.442;2023-04-27T00:13:20;94608.47;;;5.79;100.00
11487;BME280;10510;47.942;9.442;2023-04-27T00:15:20;94594.56;;;5.80;100.00
11487;BME280;10510;47.942;9.442;2023-04-27T00:17:20;94596.97;;;5.82;100.00
11487;BME280;10510;47.942;9.442;2023-04-27T00:19:21;94595.84;;;5.84;100.00
11487;BME280;10510;47.942;9.442;2023-04-27T00:21:21;94598.16;;;5.87;100.00
11487;BME280;10510;47.942;9.442;2023-04-27T00:23:22;94596.88;;;5.91;100.00
11487;BME280;10510;47.942;9.442;2023-04-27T00:25:22;94595.75;;;5.94;100.00
11487;BME280;10510;47.942;9.442;2023-04-27T00:27:22;94599.19;;;5.95;100.00
11487;BME280;10510;47.942;9.442;2023-04-27T00:29:23;94602.59;;;5.95;100.00
11487;BME280;10510;47.942;9.442;2023-04-27T00:31:23;94603.25;;;5.97;100.00
11487;BME280;10510;47.942;9.442;2023-04-27T00:33:23;94591.09;;;5.98;100.00
11487;BME280;10510;47.942;9.442;2023-04-27T00:35:23;94597.75;;;6.00;100.00
11487;BME280;10510;47.942;9.442;2023-04-27T00:37:24;94591.41;;;6.03;100.00
11487;BME280;10510;47.942;9.442;2023-04-27T00:39:24;94588.50;;;6.06;100.00
11487;BME280;10510;47.942;9.442;2023-04-27T00:41:24;94587.56;;;6.07;100.00
11487;BME280;10510;47.942;9.442;2023-04-27T00:43:25;94587.25;;;6.10;100.00
11487;BME280;10510;47.942;9.442;2023-04-27T00:45:25;94589.53;;;6.13;100.00
11487;BME280;10510;47.942;9.442;2023-04-27T00:47:26;94593.75;;;6.14;100.00
11487;BME280;10510;47.942;9.442;2023-04-27T00:49:26;94595.38;;;6.15;100.00
11487;BME280;10510;47.942;9.442;2023-04-27T00:51:27;94589.53;;;6.13;100.00
11487;BME280;10510;47.942;9.442;2023-04-27T00:53:30;94589.84;;;6.10;100.00
11487;BME280;10510;47.942;9.442;2023-04-27T00:55:31;94579.59;;;6.08;100.00
11487;BME280;10510;47.942;9.442;2023-04-27T00:57:32;94584.97;;;6.07;100.00
11487;BME280;10510;47.942;9.442;2023-04-27T00:59:32;94578.81;;;6.08;100.00
11487;BME280;10510;47.942;9.442;2023-04-27T01:01:33;94590.66;;;6.10;100.00
11487;BME280;10510;47.942;9.442;2023-04-27T01:03:33;94585.47;;;6.10;100.00
11487;BME280;10510;47.942;9.442;2023-04-27T01:05:35;94581.25;;;6.09;100.00
11487;BME280;10510;47.942;9.442;2023-04-27T01:07:37;94590.16;;;6.07;100.00
11487;BME280;10510;47.942;9.442;2023-04-27T01:09:38;94593.69;;;6.06;100.00
11487;BME280;10510;47.942;9.442;2023-04-27T01:11:38;94586.91;;;6.05;100.00
11487;BME280;10510;47.942;9.442;2023-04-27T01:13:38;94594.69;;;6.05;100.00
11487;BME280;10510;47.942;9.442;2023-04-27T01:15:39;94605.38;;;6.02;100.00
11487;BME280;10510;47.942;9.442;2023-04-27T01:17:40;94604.88;;;5.98;100.00
11487;BME280;10510;47.942;9.442;2023-04-27T01:19:41;94604.22;;;5.96;100.00
11487;BME280;10510;47.942;9.442;2023-04-27T01:21:43;94602.44;;;5.97;100.00
11487;BME280;10510;47.942;9.442;2023-04-27T01:23:44;94596.28;;;5.98;100.00
11487;BME280;10510;47.942;9.442;2023-04-27T01:25:44;94596.59;;;6.03;100.00
11487;BME280;10510;47.942;9.442;2023-04-27T01:27:44;94595.66;;;6.04;100.00
11487;BME280;10510;47.942;9.442;2023-04-27T01:29:45;94598.91;;;6.06;100.00
11487;BME280;10510;47.942;9.442;2023-04-27T01:31:45;94588.22;;;6.09;100.00
11487;BME280;10510;47.942;9.442;2023-04-27T01:33:45;94591.47;;;6.11;100.00
11487;BME280;10510;47.942;9.442;2023-04-27T01:35:45;94593.25;;;6.10;100.00
11487;BME280;10510;47.942;9.442;2023-04-27T01:37:46;94595.84;;;6.10;100.00
11487;BME280;10510;47.942;9.442;2023-04-27T01:39:46;94596.81;;;6.09;100.00
11487;BME280;10510;47.942;9.442;2023-04-27T01:41:46;94604.44;;;6.11;100.00
11487;BME280;10510;47.942;9.442;2023-04-27T01:43:46;94601.69;;;6.12;100.00
11487;BME280;10510;47.942;9.442;2023-04-27T01:45:47;94602.66;;;6.11;100.00
11487;BME280;10510;47.942;9.442;2023-04-27T01:47:50;94600.22;;;6.10;100.00
11487;BME280;10510;47.942;9.442;2023-04-27T01:49:51;94601.34;;;6.07;100.00
11487;BME280;10510;47.942;9.442;2023-04-27T01:51:51;94602.47;;;6.05;100.00
11487;BME280;10510;47.942;9.442;2023-04-27T01:53:51;94600.19;;;6.02;100.00
11487;BME280;10510;47.942;9.442;2023-04-27T01:55:52;94607.16;;;6.01;100.00
11487;BME280;10510;47.942;9.442;2023-04-27T01:57:52;94607.31;;;6.00;100.00
11487;BME280;10510;47.942;9.442;2023-04-27T01:59:52;94610.88;;;5.99;100.00
11487;BME280;10510;47.942;9.442;2023-04-27T02:01:53;94615.25;;;5.98;100.00
11487;BME280;10510;47.942;9.442;2023-04-27T02:03:53;94607.47;;;5.98;100.00
11487;BME280;10510;47.942;9.442;2023-04-27T02:05:53;94613.63;;;5.97;100.00
11487;BME280;10510;47.942;9.442;2023-04-27T02:07:54;94613.91;;;5.94;100.00
11487;BME280;10510;47.942;9.442;2023-04-27T02:09:54;94615.84;;;5.92;100.00
11487;BME280;10510;47.942;9.442;2023-04-27T02:11:55;94614.38;;;5.89;100.00
11487;BME280;10510;47.942;9.442;2023-04-27T02:13:55;94610.97;;;5.89;100.00
11487;BME280;10510;47.942;9.442;2023-04-27T02:15:55;94611.59;;;5.91;100.00
11487;BME280;10510;47.942;9.442;2023-04-27T02:17:55;94605.63;;;5.90;100.00
11487;BME280;10510;47.942;9.442;2023-04-27T02:19:56;94602.38;;;5.88;100.00
11487;BME280;10510;47.942;9.442;2023-04-27T02:21:56;94603.34;;;5.87;100.00
11487;BME280;10510;47.942;9.442;2023-04-27T02:23:56;94610.31;;;5.87;100.00
11487;BME280;10510;47.942;9.442;2023-04-27T02:25:57;94606.72;;;5.88;100.00
11487;BME280;10510;47.942;9.442;2023-04-27T02:27:57;94610.16;;;5.88;100.00
11487;BME280;10510;47.942;9.442;2023-04-27T02:29:57;94613.41;;;5.90;100.00
11487;BME280;10510;47.942;9.442;2023-04-27T02:31:57;94605.63;;;5.90;100.00
11487;BME280;10510;47.942;9.442;2023-04-27T02:33:58;94605.63;;;5.90;100.00
11487;BME280;10510;47.942;9.442;2023-04-27T02:35:58;94606.97;;;5.95;100.00
11487;BME280;10510;47.942;9.442;2023-04-27T02:37:58;94611.19;;;5.96;100.00
11487;BME280;10510;47.942;9.442;2023-04-27T02:39:59;94610.22;;;5.97;100.00
11487;BME280;10510;47.942;9.442;2023-04-27T02:41:59;94606.34;;;6.01;100.00
11487;BME280;10510;47.942;9.442;2023-04-27T02:44:00;94602.78;;;6.02;100.00
11487;BME280;10510;47.942;9.442;2023-04-27T02:46:04;94606.03;;;6.04;100.00
11487;BME280;10510;47.942;9.442;2023-04-27T02:48:04;94609.28;;;6.06;100.00
11487;BME280;10510;47.942;9.442;2023-04-27T02:50:05;94609.28;;;6.06;100.00
11487;BME280;10510;47.942;9.442;2023-04-27T02:52:06;94605.22;;;6.03;100.00
11487;BME280;10510;47.942;9.442;2023-04-27T02:54:08;94596.28;;;5.98;100.00
11487;BME280;10510;47.942;9.442;2023-04-27T02:56:08;94600.28;;;5.92;100.00
11487;BME280;10510;47.942;9.442;2023-04-27T02:58:08;94602.06;;;5.91;100.00
11487;BME280;10510;47.942;9.442;2023-04-27T03:00:09;94598.63;;;5.91;100.00
11487;BME280;10510;47.942;9.442;2023-04-27T03:02:10;94602.88;;;5.92;100.00
11487;BME280;10510;47.942;9.442;2023-04-27T03:04:10;94602.59;;;5.95;100.00
11487;BME280;10510;47.942;9.442;2023-04-27T03:06:13;94601.63;;;5.96;100.00
11487;BME280;10510;47.942;9.442;2023-04-27T03:08:13;94603.91;;;5.99;100.00
11487;BME280;10510;47.942;9.442;2023-04-27T03:10:13;94608.63;;;6.04;100.00
11487;BME280;10510;47.942;9.442;2023-04-27T03:12:14;94602.47;;;6.05;100.00
11487;BME280;10510;47.942;9.442;2023-04-27T03:14:14;94602.47;;;6.05;100.00
11487;BME280;10510;47.942;9.442;2023-04-27T03:16:14;94605.72;;;6.07;100.00
11487;BME280;10510;47.942;9.442;2023-04-27T03:18:15;94603.94;;;6.07;100.00
11487;BME280;10510;47.942;9.442;2023-04-27T03:20:15;94602.81;;;6.10;100.00
11487;BME280;10510;47.942;9.442;2023-04-27T03:22:15;94603.63;;;6.10;100.00
11487;BME280;10510;47.942;9.442;2023-04-27T03:24:16;94604.44;;;6.11;100.00
11487;BME280;10510;47.942;9.442;2023-04-27T03:26:16;94600.22;;;6.10;100.00
11487;BME280;10510;47.942;9.442;2023-04-27T03:28:16;94605.41;;;6.10;100.00
11487;BME280;10510;47.942;9.442;2023-04-27T03:30:17;94603.47;;;6.12;100.00
11487;BME280;10510;47.942;9.442;2023-04-27T03:32:17;94609.47;;;6.12;100.00
11487;BME280;10510;47.942;9.442;2023-04-27T03:34:17;94609.47;;;6.12;100.00
11487;BME280;10510;47.942;9.442;2023-04-27T03:36:19;94606.22;;;6.10;100.00
11487;BME280;10510;47.942;9.442;2023-04-27T03:38:20;94610.59;;;6.10;100.00
11487;BME280;10510;47.942;9.442;2023-04-27T03:40:20;94610.59;;;6.10;100.00
11487;BME280;10510;47.942;9.442;2023-04-27T03:42:20;94614.00;;;6.10;100.00
11487;BME280;10510;47.942;9.442;2023-04-27T03:44:21;94605.41;;;6.10;100.00
11487;BME280;10510;47.942;9.442;2023-04-27T03:46:21;94612.22;;;6.11;100.00
11487;BME280;10510;47.942;9.442;2023-04-27T03:48:21;94617.09;;;6.14;100.00
11487;BME280;10510;47.942;9.442;2023-04-27T03:50:22;94613.53;;;6.15;100.00
11487;BME280;10510;47.942;9.442;2023-04-27T03:52:22;94615.16;;;6.16;100.00
11487;BME280;10510;47.942;9.442;2023-04-27T03:54:22;94612.41;;;6.18;100.00
11487;BME280;10510;47.942;9.442;2023-04-27T03:56:22;94612.13;;;6.21;100.00
11487;BME280;10510;47.942;9.442;2023-04-27T03:58:23;94616.16;;;6.23;100.00
11487;BME280;10510;47.942;9.442;2023-04-27T04:00:23;94623.63;;;6.26;100.00
11487;BME280;10510;47.942;9.442;2023-04-27T04:02:24;94620.22;;;6.26;100.00
11487;BME280;10510;47.942;9.442;2023-04-27T04:04:24;94620.38;;;6.24;100.00
11487;BME280;10510;47.942;9.442;2023-04-27T04:06:24;94626.22;;;6.26;100.00
11487;BME280;10510;47.942;9.442;2023-04-27T04:08:25;94615.69;;;6.28;100.00
11487;BME280;10510;47.942;9.442;2023-04-27T04:10:25;94621.88;;;6.27;100.00
11487;BME280;10510;47.942;9.442;2023-04-27T04:12:25;94622.66;;;6.27;100.00
11487;BME280;10510;47.942;9.442;2023-04-27T04:14:26;94631.09;;;6.29;100.00
11487;BME280;10510;47.942;9.442;2023-04-27T04:16:26;94627.53;;;6.30;100.00
11487;BME280;10510;47.942;9.442;2023-04-27T04:18:27;94631.75;;;6.31;100.00
11487;BME280;10510;47.942;9.442;2023-04-27T04:20:27;94632.56;;;6.32;100.00
11487;BME280;10510;47.942;9.442;2023-04-27T04:22:28;94635.81;;;6.34;100.00
11487;BME280;10510;47.942;9.442;2023-04-27T04:24:28;94632.44;;;6.33;100.00
11487;BME280;10510;47.942;9.442;2023-04-27T04:26:28;94637.94;;;6.30;100.00
11487;BME280;10510;47.942;9.442;2023-04-27T04:28:29;94642.31;;;6.30;100.00
11487;BME280;10510;47.942;9.442;2023-04-27T04:30:30;94639.84;;;6.28;100.00
11487;BME280;10510;47.942;9.442;2023-04-27T04:32:32;94632.25;;;6.27;100.00
11487;BME280;10510;47.942;9.442;2023-04-27T04:34:32;94630.47;;;6.27;100.00
11487;BME280;10510;47.942;9.442;2023-04-27T04:36:33;94639.06;;;6.28;100.00
11487;BME280;10510;47.942;9.442;2023-04-27T04:38:34;94639.72;;;6.30;100.00
11487;BME280;10510;47.942;9.442;2023-04-27T04:40:34;94642.31;;;6.30;100.00
11487;BME280;10510;47.942;9.442;2023-04-27T04:42:36;94642.47;;;6.28;100.00
11487;BME280;10510;47.942;9.442;2023-04-27T04:44:39;94637.44;;;6.27;100.00
11487;BME280;10510;47.942;9.442;2023-04-27T04:46:39;94646.16;;;6.26;100.00
11487;BME280;10510;47.942;9.442;2023-04-27T04:48:39;94645.22;;;6.27;100.00
11487;BME280;10510;47.942;9.442;2023-04-27T04:50:40;94646.66;;;6.29;100.00
11487;BME280;10510;47.942;9.442;2023-04-27T04:52:41;94650.75;;;6.32;100.00
11487;BME280;10510;47.942;9.442;2023-04-27T04:54:41;94651.84;;;6.29;100.00
11487;BME280;10510;47.942;9.442;2023-04-27T04:56:41;94655.94;;;6.32;100.00
11487;BME280;10510;47.942;9.442;2023-04-27T04:58:41;94654.97;;;6.33;100.00
11487;BME280;10510;47.942;9.442;2023-04-27T05:00:42;94659.06;;;6.35;100.00
11487;BME280;10510;47.942;9.442;2023-04-27T05:02:42;94663.25;;;6.36;100.00
11487;BME280;10510;47.942;9.442;2023-04-27T05:04:42;94659.69;;;6.37;100.00
11487;BME280;10510;47.942;9.442;2023-04-27T05:06:43;94660.19;;;6.41;100.00
11487;BME280;10510;47.942;9.442;2023-04-27T05:08:43;94665.09;;;6.44;100.00
11487;BME280;10510;47.942;9.442;2023-04-27T05:10:50;94650.94;;;6.47;100.00
11487;BME280;10510;47.942;9.442;2023-04-27T05:12:50;94662.81;;;6.49;100.00
11487;BME280;10510;47.942;9.442;2023-04-27T05:14:51;94653.56;;;6.55;100.00
11487;BME280;10510;47.942;9.442;2023-04-27T05:16:51;94652.63;;;6.56;100.00
11487;BME280;10510;47.942;9.442;2023-04-27T05:18:52;94654.91;;;6.59;100.00
11487;BME280;10510;47.942;9.442;2023-04-27T05:20:53;94664.00;;;6.63;100.00
11487;BME280;10510;47.942;9.442;2023-04-27T05:22:54;94653.28;;;6.66;100.00
11487;BME280;10510;47.942;9.442;2023-04-27T05:24:54;94653.78;;;6.70;100.00
11487;BME280;10510;47.942;9.442;2023-04-27T05:26:56;94652.31;;;6.75;100.00
11487;BME280;10510;47.942;9.442;2023-04-27T05:28:56;94652.50;;;6.82;100.00
11487;BME280;10510;47.942;9.442;2023-04-27T05:30:56;94649.56;;;6.85;100.00
11487;BME280;10510;47.942;9.442;2023-04-27T05:32:56;94645.84;;;6.88;100.00
11487;BME280;10510;47.942;9.442;2023-04-27T05:34:57;94646.50;;;6.90;100.00
11487;BME280;10510;47.942;9.442;2023-04-27T05:36:57;94645.53;;;6.91;100.00
11487;BME280;10510;47.942;9.442;2023-04-27T05:38:57;94649.44;;;6.95;100.00
11487;BME280;10510;47.942;9.442;2023-04-27T05:40:58;94648.16;;;6.99;100.00
11487;BME280;10510;47.942;9.442;2023-04-27T05:42:58;94648.97;;;7.08;100.00
11487;BME280;10510;47.942;9.442;2023-04-27T05:45:02;94643.78;;;7.16;100.00
11487;BME280;10510;47.942;9.442;2023-04-27T05:47:03;94642.94;;;7.23;100.00
11487;BME280;10510;47.942;9.442;2023-04-27T05:49:03;94646.22;;;7.34;100.00
11487;BME280;10510;47.942;9.442;2023-04-27T05:51:03;94645.56;;;7.40;100.00
11487;BME280;10510;47.942;9.442;2023-04-27T05:53:04;94646.53;;;7.47;100.00
11487;BME280;10510;47.942;9.442;2023-04-27T05:55:05;94646.53;;;7.55;100.00
11487;BME280;10510;47.942;9.442;2023-04-27T05:57:06;94645.38;;;7.66;100.00
11487;BME280;10510;47.942;9.442;2023-04-27T05:59:07;94650.41;;;7.76;100.00
11487;BME280;10510;47.942;9.442;2023-04-27T06:01:07;94656.91;;;7.80;100.00
11487;BME280;10510;47.942;9.442;2023-04-27T06:03:07;94651.38;;;7.83;100.00
11487;BME280;10510;47.942;9.442;2023-04-27T06:05:08;94659.97;;;7.91;100.00
11487;BME280;10510;47.942;9.442;2023-04-27T06:07:13;94657.34;;;8.00;100.00
11487;BME280;10510;47.942;9.442;2023-04-27T06:09:13;94664.78;;;8.11;100.00
11487;BME280;10510;47.942;9.442;2023-04-27T06:11:13;94667.19;;;8.20;100.00
11487;BME280;10510;47.942;9.442;2023-04-27T06:13:14;94667.16;;;8.29;100.00
11487;BME280;10510;47.942;9.442;2023-04-27T06:15:15;94666.16;;;8.38;100.00
11487;BME280;10510;47.942;9.442;2023-04-27T06:17:16;94674.63;;;8.48;100.00
11487;BME280;10510;47.942;9.442;2023-04-27T06:19:16;94670.34;;;8.55;100.00
11487;BME280;10510;47.942;9.442;2023-04-27T06:21:16;94670.66;;;8.60;100.00
11487;BME280;10510;47.942;9.442;2023-04-27T06:23:17;94674.03;;;8.69;100.00
11487;BME280;10510;47.942;9.442;2023-04-27T06:25:17;94679.69;;;8.81;100.00
11487;BME280;10510;47.942;9.442;2023-04-27T06:27:17;94680.75;;;8.95;100.00
11487;BME280;10510;47.942;9.442;2023-04-27T06:29:17;94683.13;;;9.04;100.00
11487;BME280;10510;47.942;9.442;2023-04-27T06:31:18;94689.59;;;9.08;100.00
11487;BME280;10510;47.942;9.442;2023-04-27T06:33:18;94676.53;;;9.17;100.00
11487;BME280;10510;47.942;9.442;2023-04-27T06:35:18;94689.16;;;9.28;100.00
11487;BME280;10510;47.942;9.442;2023-04-27T06:37:18;94682.75;;;9.39;100.00
11487;BME280;10510;47.942;9.442;2023-04-27T06:39:19;94685.84;;;9.57;100.00
11487;BME280;10510;47.942;9.442;2023-04-27T06:41:19;94684.28;;;9.71;100.00
11487;BME280;10510;47.942;9.442;2023-04-27T06:43:19;94684.81;;;9.81;100.00
11487;BME280;10510;47.942;9.442;2023-04-27T06:45:20;94685.03;;;9.94;100.00
11487;BME280;10510;47.942;9.442;2023-04-27T06:47:20;94691.44;;;10.07;100.00
11487;BME280;10510;47.942;9.442;2023-04-27T06:49:21;94695.94;;;10.13;100.00
11487;BME280;10510;47.942;9.442;2023-04-27T06:51:21;94688.75;;;10.15;100.00
11487;BME280;10510;47.942;9.442;2023-04-27T06:53:21;94695.59;;;10.16;100.00
11487;BME280;10510;47.942;9.442;2023-04-27T06:55:22;94692.25;;;10.22;100.00
11487;BME280;10510;47.942;9.442;2023-04-27T06:57:22;94699.25;;;10.30;100.00
11487;BME280;10510;47.942;9.442;2023-04-27T06:59:23;94696.16;;;10.41;100.00
11487;BME280;10510;47.942;9.442;2023-04-27T07:01:23;94696.28;;;10.48;100.00
11487;BME280;10510;47.942;9.442;2023-04-27T07:03:23;94697.97;;;10.55;100.00
11487;BME280;10510;47.942;9.442;2023-04-27T07:05:24;94695.44;;;10.62;100.00
11487;BME280;10510;47.942;9.442;2023-04-27T07:07:24;94689.28;;;10.69;100.00
11487;BME280;10510;47.942;9.442;2023-04-27T07:09:24;94693.25;;;10.80;100.00
11487;BME280;10510;47.942;9.442;2023-04-27T07:11:25;94694.34;;;10.86;100.00
11487;BME280;10510;47.942;9.442;2023-04-27T07:13:25;94693.75;;;10.90;100.00
11487;BME280;10510;47.942;9.442;2023-04-27T07:15:25;94690.72;;;10.87;100.00
11487;BME280;10510;47.942;9.442;2023-04-27T07:17:26;94693.53;;;10.85;100.00
11487;BME280;10510;47.942;9.442;2023-04-27T07:19:26;94693.50;;;11.00;100.00
11487;BME280;10510;47.942;9.442;2023-04-27T07:21:26;94692.38;;;11.09;100.00
11487;BME280;10510;47.942;9.442;2023-04-27T07:23:27;94697.84;;;11.14;100.00
11487;BME280;10510;47.942;9.442;2023-04-27T07:25:28;94696.31;;;11.20;100.00
11487;BME280;10510;47.942;9.442;2023-04-27T07:27:28;94699.00;;;11.27;100.00
11487;BME280;10510;47.942;9.442;2023-04-27T07:29:28;94696.81;;;11.30;100.00
11487;BME280;10510;47.942;9.442;2023-04-27T07:31:29;94692.94;;;11.26;100.00
11487;BME280;10510;47.942;9.442;2023-04-27T07:33:33;94697.00;;;11.29;100.00
11487;BME280;10510;47.942;9.442;2023-04-27T07:35:34;94701.63;;;11.27;100.00
11487;BME280;10510;47.942;9.442;2023-04-27T07:37:35;94704.25;;;11.27;100.00
11487;BME280;10510;47.942;9.442;2023-04-27T07:39:39;94707.66;;;11.27;100.00
11487;BME280;10510;47.942;9.442;2023-04-27T07:41:39;94700.19;;;11.24;100.00
11487;BME280;10510;47.942;9.442;2023-04-27T07:43:40;94704.66;;;11.30;100.00
11487;BME280;10510;47.942;9.442;2023-04-27T07:45:41;94696.13;;;11.43;100.00
11487;BME280;10510;47.942;9.442;2023-04-27T07:47:41;94698.88;;;11.56;100.00
11487;BME280;10510;47.942;9.442;2023-04-27T07:49:43;94698.06;;;11.77;100.00
11487;BME280;10510;47.942;9.442;2023-04-27T07:51:47;94696.19;;;11.93;100.00
11487;BME280;10510;47.942;9.442;2023-04-27T07:53:47;94700.91;;;12.04;100.00
11487;BME280;10510;47.942;9.442;2023-04-27T07:55:47;94697.94;;;12.14;100.00
11487;BME280;10510;47.942;9.442;2023-04-27T07:57:56;94701.66;;;12.26;100.00
11487;BME280;10510;47.942;9.442;2023-04-27T07:59:57;94696.50;;;12.39;100.00
11487;BME280;10510;47.942;9.442;2023-04-27T08:01:57;94696.13;;;12.42;100.00
11487;BME280;10510;47.942;9.442;2023-04-27T08:03:57;94700.47;;;12.63;100.00
11487;BME280;10510;47.942;9.442;2023-04-27T08:05:58;94697.94;;;12.83;100.00
11487;BME280;10510;47.942;9.442;2023-04-27T08:07:58;94705.03;;;12.96;100.00
11487;BME280;10510;47.942;9.442;2023-04-27T08:09:58;94702.41;;;12.96;100.00
11487;BME280;10510;47.942;9.442;2023-04-27T08:11:59;94695.56;;;12.88;100.00
11487;BME280;10510;47.942;9.442;2023-04-27T08:13:59;94702.03;;;13.06;100.00
11487;BME280;10510;47.942;9.442;2023-04-27T08:15:59;94697.66;;;13.19;100.00
11487;BME280;10510;47.942;9.442;2023-04-27T08:18:00;94699.47;;;13.12;100.00
11487;BME280;10510;47.942;9.442;2023-04-27T08:20:00;94709.34;;;13.17;100.00
11487;BME280;10510;47.942;9.442;2023-04-27T08:22:00;94703.72;;;13.20;100.00
11487;BME280;10510;47.942;9.442;2023-04-27T08:24:01;94699.13;;;13.29;100.00
11487;BME280;10510;47.942;9.442;2023-04-27T08:26:02;94704.81;;;13.39;100.00
11487;BME280;10510;47.942;9.442;2023-04-27T08:28:02;94710.25;;;13.31;100.00
11487;BME280;10510;47.942;9.442;2023-04-27T08:30:03;94710.25;;;13.31;100.00
11487;BME280;10510;47.942;9.442;2023-04-27T08:32:04;94703.38;;;13.36;100.00
11487;BME280;10510;47.942;9.442;2023-04-27T08:34:12;94701.41;;;13.52;100.00
11487;BME280;10510;47.942;9.442;2023-04-27T08:36:12;94699.59;;;13.59;100.00
11487;BME280;10510;47.942;9.442;2023-04-27T08:38:13;94699.41;;;13.74;100.00
11487;BME280;10510;47.942;9.442;2023-04-27T08:40:13;94694.97;;;13.81;100.00
11487;BME280;10510;47.942;9.442;2023-04-27T08:42:14;94693.75;;;14.03;100.00
11487;BME280;10510;47.942;9.442;2023-04-27T08:44:14;94694.94;;;14.27;100.00
11487;BME280;10510;47.942;9.442;2023-04-27T08:46:19;94693.53;;;14.25;100.00
11487;BME280;10510;47.942;9.442;2023-04-27T08:48:20;94686.25;;;14.34;100.00
11487;BME280;10510;47.942;9.442;2023-04-27T08:50:21;94686.44;;;14.52;100.00
11487;BME280;10510;47.942;9.442;2023-04-27T08:52:23;94683.59;;;14.60;100.00
11487;BME280;10510;47.942;9.442;2023-04-27T08:54:23;94681.72;;;14.67;100.00
11487;BME280;10510;47.942;9.442;2023-04-27T08:56:25;94684.53;;;14.79;100.00
11487;BME280;10510;47.942;9.442;2023-04-27T08:58:36;94687.97;;;14.80;100.00
11487;BME280;10510;47.942;9.442;2023-04-27T09:00:40;94683.69;;;14.92;100.00
11487;BME280;10510;47.942;9.442;2023-04-27T09:02:47;94690.34;;;14.94;100.00
11487;BME280;10510;47.942;9.442;2023-04-27T09:04:47;94687.28;;;15.04;100.00
11487;BME280;10510;47.942;9.442;2023-04-27T09:06:48;94687.41;;;15.16;100.00
11487;BME280;10510;47.942;9.442;2023-04-27T09:08:49;94688.03;;;15.18;100.00
11487;BME280;10510;47.942;9.442;2023-04-27T09:10:50;94693.88;;;15.20;100.00
11487;BME280;10510;47.942;9.442;2023-04-27T09:12:58;94686.56;;;15.22;100.00
11487;BME280;10510;47.942;9.442;2023-04-27T09:15:00;94687.56;;;15.28;100.00
11487;BME280;10510;47.942;9.442;2023-04-27T09:17:02;94689.63;;;15.19;100.00
11487;BME280;10510;47.942;9.442;2023-04-27T09:19:02;94678.28;;;15.18;100.00
11487;BME280;10510;47.942;9.442;2023-04-27T09:21:03;94680.88;;;15.25;100.00
11487;BME280;10510;47.942;9.442;2023-04-27T09:23:03;94681.88;;;15.31;100.00
11487;BME280;10510;47.942;9.442;2023-04-27T09:25:04;94687.75;;;15.33;100.00
11487;BME280;10510;47.942;9.442;2023-04-27T09:27:05;94682.53;;;15.19;100.00
11487;BME280;10510;47.942;9.442;2023-04-27T09:29:06;94680.69;;;15.20;100.00
11487;BME280;10510;47.942;9.442;2023-04-27T09:31:07;94678.00;;;15.33;100.00
11487;BME280;10510;47.942;9.442;2023-04-27T09:33:08;94679.00;;;15.32;100.00
11487;BME280;10510;47.942;9.442;2023-04-27T09:35:20;94677.72;;;15.10;100.00
11487;BME280;10510;47.942;9.442;2023-04-27T09:37:21;94679.78;;;15.01;100.00
11487;BME280;10510;47.942;9.442;2023-04-27T09:39:22;94679.84;;;14.94;100.00
11487;BME280;10510;47.942;9.442;2023-04-27T09:41:22;94678.22;;;14.87;100.00
11487;BME280;10510;47.942;9.442;2023-04-27T09:43:23;94680.50;;;14.76;100.00
11487;BME280;10510;47.942;9.442;2023-04-27T09:45:24;94687.75;;;14.81;100.00
11487;BME280;10510;47.942;9.442;2023-04-27T09:47:25;94680.44;;;14.90;100.00
11487;BME280;10510;47.942;9.442;2023-04-27T09:49:27;94683.03;;;14.96;100.00
11487;BME280;10510;47.942;9.442;2023-04-27T09:51:28;94681.19;;;15.04;100.00
11487;BME280;10510;47.942;9.442;2023-04-27T09:53:35;94681.19;;;15.04;100.00
11487;BME280;10510;47.942;9.442;2023-04-27T09:57:57;94680.75;;;15.13;100.00
11487;BME280;10510;47.942;9.442;2023-04-27T10:02:15;94675.75;;;14.98;100.00
11487;BME280;10510;47.942;9.442;2023-04-27T10:07:03;94675.16;;;14.96;100.00
11487;BME280;10510;47.942;9.442;2023-04-27T10:09:04;94681.25;;;14.90;100.00
11487;BME280;10510;47.942;9.442;2023-04-27T10:11:12;94677.47;;;14.80;100.00
11487;BME280;10510;47.942;9.442;2023-04-27T10:13:24;94672.00;;;14.74;100.00
11487;BME280;10510;47.942;9.442;2023-04-27T10:15:26;94670.56;;;14.79;100.00
11487;BME280;10510;47.942;9.442;2023-04-27T10:17:34;94681.84;;;14.92;100.00
11487;BME280;10510;47.942;9.442;2023-04-27T10:19:36;94673.88;;;15.12;100.00
11487;BME280;10510;47.942;9.442;2023-04-27T10:21:36;94678.63;;;15.29;100.00
11487;BME280;10510;47.942;9.442;2023-04-27T10:23:48;94676.25;;;15.59;100.00
11487;BME280;10510;47.942;9.442;2023-04-27T10:25:49;94678.81;;;15.72;100.00
11487;BME280;10510;47.942;9.442;2023-04-27T10:27:53;94676.47;;;15.82;100.00
11487;BME280;10510;47.942;9.442;2023-04-27T10:29:54;94668.22;;;15.79;100.00
11487;BME280;10510;47.942;9.442;2023-04-27T10:31:54;94674.34;;;15.98;100.00
11487;BME280;10510;47.942;9.442;2023-04-27T10:34:07;94667.00;;;16.25;100.00
11487;BME280;10510;47.942;9.442;2023-04-27T10:36:13;94668.19;;;16.29;100.00
11487;BME280;10510;47.942;9.442;2023-04-27T10:38:20;94663.56;;;16.24;100.00
11487;BME280;10510;47.942;9.442;2023-04-27T10:40:32;94668.94;;;16.36;100.00
11487;BME280;10510;47.942;9.442;2023-04-27T10:42:33;94664.91;;;16.52;100.00
11487;BME280;10510;47.942;9.442;2023-04-27T10:44:34;94668.22;;;16.47;100.00
11487;BME280;10510;47.942;9.442;2023-04-27T10:46:35;94664.13;;;16.26;100.00